Time;durP1;ratioP1;P1;durP2;ratioP2;P2;SDS_P1;SDS_P2;PMS_P1;PMS_P2;Temp;Humidity;BMP_temperature;BMP_pressure;BME280_temperature;BME280_humidity;BME280_pressure;Samples;Min_cycle;Max_cycle;Signal;HPM_P1;HPM_P2
2023/05/10 00:02:06;;;;;;;16.10;15.60;;;16.00;1.00;;;;;;5072300;28;20485;-82
2023/05/10 00:05:14;;;;;;;;;;;;;;;;;;;;;
2023/05/10 00:08:05;;;;;;;15.93;15.53;;;15.90;1.00;;;;;;5070595;28;20805;-83
2023/05/10 00:10:38;;;;;;;16.27;15.87;;;15.90;1.00;;;;;;5057516;28;20590;-83
2023/05/10 00:13:17;;;;;;;16.30;15.80;;;15.90;1.00;;;;;;5056303;28;20495;-83
2023/05/10 00:16:09;;;;;;;16.00;15.60;;;15.90;1.00;;;;;;5072053;28;20910;-82
2023/05/10 00:19:01;;;;;;;16.63;16.13;;;15.80;1.00;;;;;;5078388;28;20468;-82
2023/05/10 00:21:43;;;;;;;16.23;15.83;;;15.90;99.90;;;;;;5078737;28;20464;-80
2023/05/10 00:24:24;;;;;;;16.37;15.97;;;15.90;99.90;;;;;;5074758;28;20548;-82
2023/05/10 00:26:53;;;;;;;16.53;16.03;;;15.80;71.80;;;;;;5074502;28;20697;-83
2023/05/10 00:29:25;;;;;;;16.60;16.20;;;15.80;99.90;;;;;;5073613;28;20456;-82
2023/05/10 00:31:53;;;;;;;16.73;16.23;;;15.70;74.40;;;;;;5077331;28;20461;-81
2023/05/10 00:34:22;;;;;;;16.97;16.47;;;15.70;99.90;;;;;;5075583;28;20530;-82
2023/05/10 00:36:51;;;;;;;16.70;16.30;;;15.70;18.20;;;;;;5076113;28;20473;-82
2023/05/10 00:39:19;;;;;;;16.60;16.20;;;15.60;99.90;;;;;;5077144;28;20462;-83
2023/05/10 00:41:47;;;;;;;16.63;16.13;;;15.60;42.00;;;;;;5076655;28;21040;-82
2023/05/10 00:44:15;;;;;;;17.03;16.43;;;15.60;1.00;;;;;;5074419;28;20490;-82
2023/05/10 00:46:43;;;;;;;16.63;16.23;;;15.60;99.90;;;;;;5079334;28;20452;-82
2023/05/10 00:49:12;;;;;;;16.40;15.90;;;15.60;1.00;;;;;;5077861;28;20443;-82
2023/05/10 00:51:42;;;;;;;16.27;15.80;;;15.60;1.00;;;;;;5076022;28;20870;-83
2023/05/10 00:54:30;;;;;;;16.00;15.60;;;15.60;99.90;;;;;;5074099;28;20799;-84
2023/05/10 00:57:03;;;;;;;16.23;15.73;;;15.60;33.30;;;;;;5070513;28;21046;-84
2023/05/10 00:59:38;;;;;;;16.53;16.03;;;15.60;99.90;;;;;;5061982;28;20743;-83
2023/05/10 01:02:08;;;;;;;16.40;16.00;;;15.40;99.90;;;;;;5076180;28;20456;-83
2023/05/10 01:04:36;;;;;;;15.80;15.40;;;15.50;99.90;;;;;;5065176;28;20481;-83
2023/05/10 01:07:06;;;;;;;16.00;15.60;;;15.50;99.90;;;;;;5079735;28;21142;-82
2023/05/10 01:09:35;;;;;;;15.00;14.70;;;15.40;99.90;;;;;;5078139;28;20449;-83
2023/05/10 01:12:06;;;;;;;15.30;14.90;;;15.40;1.00;;;;;;5083512;28;20456;-83
2023/05/10 01:14:37;;;;;;;14.70;14.40;;;15.40;1.00;;;;;;5082332;28;20441;-84
2023/05/10 01:17:07;;;;;;;15.00;14.70;;;15.40;1.00;;;;;;5071023;28;21065;-83
2023/05/10 01:19:37;;;;;;;15.43;14.90;;;15.50;99.90;;;;;;5079723;28;20467;-81
2023/05/10 01:22:23;;;;;;;15.73;15.13;;;15.50;1.00;;;;;;5077547;28;20540;-82
2023/05/10 01:25:33;;;;;;;14.93;14.63;;;15.40;1.00;;;;;;5078708;28;20493;-82
2023/05/10 01:28:47;;;;;;;14.80;14.40;;;15.40;1.00;;;;;;5046195;28;20465;-83
2023/05/10 01:31:29;;;;;;;15.20;14.80;;;15.40;1.00;;;;;;5058864;28;20452;-82
2023/05/10 01:34:03;;;;;;;15.20;14.80;;;15.40;1.00;;;;;;5077950;28;20498;-82
2023/05/10 01:36:33;;;;;;;14.90;14.60;;;15.40;1.00;;;;;;5079146;28;20549;-81
2023/05/10 01:39:07;;;;;;;14.90;14.50;;;15.40;1.00;;;;;;5079024;28;20467;-81
2023/05/10 01:41:44;;;;;;;14.67;14.37;;;15.30;1.00;;;;;;5077767;28;20544;-81
2023/05/10 01:44:18;;;;;;;15.20;14.80;;;15.30;1.00;;;;;;5081553;28;20566;-80
2023/05/10 01:46:56;;;;;;;14.70;14.40;;;15.40;1.00;;;;;;5072039;28;20539;-82
2023/05/10 01:49:30;;;;;;;15.00;14.60;;;15.30;38.80;;;;;;5074227;28;20456;-82
2023/05/10 01:52:11;;;;;;;14.90;14.50;;;15.30;1.00;;;;;;5079137;28;20504;-80
2023/05/10 01:54:50;;;;;;;14.90;14.50;;;15.30;99.90;;;;;;5077794;28;20481;-81
2023/05/10 01:57:36;;;;;;;14.87;14.40;;;15.30;99.90;;;;;;5082527;28;20473;-82
2023/05/10 02:03:46;;;;;;;14.93;14.53;;;15.40;1.00;;;;;;5066849;28;20570;-82
2023/05/10 02:06:39;;;;;;;15.17;14.70;;;15.30;99.90;;;;;;5078305;28;20502;-81
2023/05/10 02:09:19;;;;;;;15.07;14.67;;;15.30;1.00;;;;;;5080483;28;21045;-82
2023/05/10 02:11:49;;;;;;;15.30;14.90;;;15.30;99.90;;;;;;5079445;28;20443;-81
2023/05/10 02:14:19;;;;;;;15.10;14.70;;;15.30;24.60;;;;;;5079472;28;20469;-82
2023/05/10 02:16:56;;;;;;;15.80;15.30;;;15.30;99.90;;;;;;5076932;28;20457;-82
2023/05/10 02:19:41;;;;;;;15.53;15.00;;;15.30;99.90;;;;;;5078142;28;20885;-82
2023/05/10 02:25:38;;;;;;;15.60;15.20;;;15.30;1.00;;;;;;5078665;28;20489;-83
2023/05/10 02:28:37;;;;;;;15.80;15.30;;;15.30;1.00;;;;;;5078090;28;20459;-83
2023/05/10 02:32:05;;;;;;;15.60;15.10;;;15.30;99.90;;;;;;5063069;28;20553;-83
2023/05/10 02:35:03;;;;;;;15.37;14.97;;;15.20;45.10;;;;;;5076598;28;20977;-85
2023/05/10 02:37:54;;;;;;;15.87;15.37;;;15.20;99.90;;;;;;5060114;28;20468;-85
2023/05/10 02:40:52;;;;;;;15.77;15.27;;;15.20;99.90;;;;;;5079211;28;20537;-85
2023/05/10 02:43:46;;;;;;;15.60;15.20;;;15.20;99.90;;;;;;5075288;28;20482;-84
2023/05/10 02:46:26;;;;;;;15.77;15.00;;;15.30;1.00;;;;;;5076592;28;20885;-84
2023/05/10 02:48:55;;;;;;;15.80;15.30;;;15.20;99.90;;;;;;5076307;28;20823;-83
2023/05/10 02:51:33;;;;;;;15.20;14.80;;;15.20;99.90;;;;;;5077631;28;20502;-83
2023/05/10 02:54:11;;;;;;;15.47;15.07;;;15.20;99.90;;;;;;5058942;28;20505;-83
2023/05/10 02:56:49;;;;;;;15.30;14.90;;;15.20;1.00;;;;;;5075246;28;20444;-81
2023/05/10 02:59:18;;;;;;;15.20;14.80;;;15.20;99.90;;;;;;5079493;28;21013;-83
2023/05/10 03:01:47;;;;;;;15.73;14.77;;;15.20;97.10;;;;;;5074307;28;20529;-82
2023/05/10 03:04:34;;;;;;;14.87;14.50;;;15.10;99.90;;;;;;5077841;28;20468;-83
2023/05/10 03:07:19;;;;;;;14.60;14.30;;;15.10;1.00;;;;;;5075060;28;20462;-83
2023/05/10 03:09:49;;;;;;;14.70;14.40;;;15.10;99.90;;;;;;5075497;28;20826;-83
2023/05/10 03:13:03;;;;;;;14.70;14.40;;;15.10;1.00;;;;;;5079756;28;20481;-84
2023/05/10 03:15:56;;;;;;;14.90;14.50;;;15.20;1.00;;;;;;5056176;28;20493;-83
2023/05/10 03:18:34;;;;;;;15.00;14.60;;;15.10;1.00;;;;;;5078124;28;20478;-84
2023/05/10 03:21:23;;;;;;;15.10;14.50;;;15.10;58.10;;;;;;5055690;28;21894;-84
2023/05/10 03:24:00;;;;;;;14.70;14.40;;;15.10;57.10;;;;;;5075313;28;20482;-84
2023/05/10 03:26:39;;;;;;;15.50;14.90;;;15.10;44.10;;;;;;5072860;28;20471;-84
2023/05/10 03:29:12;;;;;;;15.30;14.90;;;15.10;35.80;;;;;;5073852;28;20963;-84
2023/05/10 03:31:40;;;;;;;15.50;15.00;;;15.10;1.00;;;;;;5077809;28;21151;-84
2023/05/10 03:34:08;;;;;;;15.20;14.80;;;15.00;15.10;;;;;;5058878;28;20484;-84
2023/05/10 03:36:37;;;;;;;15.20;14.80;;;15.00;99.90;;;;;;5074772;28;20455;-83
2023/05/10 03:39:05;;;;;;;14.97;14.57;;;15.10;1.00;;;;;;5074536;28;20814;-83
2023/05/10 03:41:33;;;;;;;15.27;14.70;;;15.00;1.00;;;;;;5076663;28;20455;-82
2023/05/10 03:44:11;;;;;;;15.10;14.70;;;15.00;1.00;;;;;;5076576;28;20476;-83
2023/05/10 03:46:48;;;;;;;15.03;14.70;;;15.10;1.00;;;;;;5056600;28;20466;-83
2023/05/10 03:49:22;;;;;;;15.00;14.60;;;15.10;1.00;;;;;;5072313;28;20459;-83
2023/05/10 03:52:01;;;;;;;15.37;14.87;;;15.00;99.90;;;;;;5059408;28;20463;-83
2023/05/10 03:54:47;;;;;;;15.47;15.07;;;15.00;99.90;;;;;;5076425;28;20460;-82
2023/05/10 03:57:24;;;;;;;15.70;15.30;;;15.00;99.90;;;;;;5076687;28;21138;-82
2023/05/10 04:00:24;;;;;;;15.50;15.10;;;14.90;1.00;;;;;;5071044;28;20449;-81
2023/05/10 04:05:47;;;;;;;15.60;15.20;;;14.80;1.00;;;;;;5073833;28;20489;-83
2023/05/10 04:08:18;;;;;;;15.97;15.50;;;14.80;99.90;;;;;;5076133;28;20541;-83
2023/05/10 04:14:00;;;;;;;16.53;16.03;;;14.70;1.00;;;;;;5050440;28;20474;-82
2023/05/10 04:16:35;;;;;;;16.00;15.50;;;14.80;1.00;;;;;;5077940;28;20457;-82
2023/05/10 04:19:17;;;;;;;15.70;15.30;;;14.80;99.90;;;;;;5079714;28;20545;-83
2023/05/10 04:22:20;;;;;;;15.80;15.30;;;14.70;99.90;;;;;;5076698;28;20946;-80
2023/05/10 04:28:43;;;;;;;15.90;15.47;;;14.80;99.90;;;;;;5054268;28;20460;-82
2023/05/10 04:31:50;;;;;;;16.40;15.90;;;14.80;99.90;;;;;;5054408;28;21048;-82
2023/05/10 04:34:56;;;;;;;16.37;15.70;;;14.80;99.90;;;;;;5058588;28;20453;-85
2023/05/10 04:43:41;;;;;;;16.80;16.30;;;14.90;1.00;;;;;;5065987;28;20484;-82
2023/05/10 04:46:31;;;;;;;16.30;15.80;;;14.90;99.90;;;;;;5077090;28;20489;-83
2023/05/10 04:49:25;;;;;;;16.23;15.73;;;14.90;99.90;;;;;;5075277;28;20962;-82
2023/05/10 04:52:10;;;;;;;16.23;15.83;;;14.90;99.90;;;;;;5076963;28;20989;-83
2023/05/10 04:54:51;;;;;;;17.13;16.20;;;14.90;1.00;;;;;;5062402;28;20481;-83
2023/05/10 04:57:37;;;;;;;16.50;16.00;;;14.90;99.90;;;;;;5078610;28;20524;-82
2023/05/10 05:03:45;;;;;;;16.00;15.57;;;15.00;1.00;;;;;;5059297;28;20480;-82
2023/05/10 05:07:03;;;;;;;16.43;15.80;;;15.00;1.00;;;;;;5073454;28;20509;-83
2023/05/10 05:09:54;;;;;;;16.63;15.93;;;15.00;1.00;;;;;;5067825;28;20462;-83
2023/05/10 05:12:47;;;;;;;16.57;16.07;;;15.00;1.00;;;;;;5079193;28;20469;-83
2023/05/10 05:15:40;;;;;;;16.57;16.07;;;15.00;99.90;;;;;;5083259;28;20569;-82
2023/05/10 05:18:30;;;;;;;15.90;15.50;;;15.10;1.00;;;;;;5080522;28;20805;-83
2023/05/10 05:21:16;;;;;;;16.67;16.07;;;15.10;99.90;;;;;;5083867;28;20443;-84
2023/05/10 05:24:12;;;;;;;16.63;16.03;;;15.00;99.90;;;;;;5079922;28;20526;-82
2023/05/10 05:27:17;;;;;;;16.20;15.70;;;15.00;1.00;;;;;;5079759;28;20493;-84
2023/05/10 05:33:26;;;;;;;15.90;15.40;;;15.00;99.90;;;;;;5079702;28;21006;-83
2023/05/10 05:36:40;;;;;;;16.27;15.70;;;15.00;99.90;;;;;;5078876;28;20450;-83
2023/05/10 05:39:22;;;;;;;16.50;15.83;;;15.00;1.00;;;;;;5079300;28;20470;-83
2023/05/10 05:42:01;;;;;;;16.70;16.10;;;15.00;99.90;;;;;;5080591;28;20462;-84
2023/05/10 05:48:19;;;;;;;16.23;15.83;;;15.00;1.00;;;;;;5078340;28;20808;-84
2023/05/10 05:51:10;;;;;;;15.90;15.50;;;15.00;6.70;;;;;;5080758;28;20462;-82
2023/05/10 05:54:04;;;;;;;15.97;15.47;;;15.00;1.00;;;;;;5075321;28;20504;-81
2023/05/10 06:00:14;;;;;;;15.90;15.50;;;15.00;99.90;;;;;;5078373;28;20463;-83
2023/05/10 06:03:33;;;;;;;16.10;15.60;;;15.00;1.00;;;;;;5082098;28;20476;-83
2023/05/10 06:06:36;;;;;;;;;;;;;;;;;;;;;
2023/05/10 06:09:25;;;;;;;16.17;15.77;;;15.10;1.00;;;;;;5076778;28;20451;-83
2023/05/10 06:12:13;;;;;;;15.90;15.50;;;15.10;1.00;;;;;;5077029;28;20460;-82
2023/05/10 06:18:25;;;;;;;16.70;16.20;;;15.10;43.90;;;;;;5057822;28;20465;-82
2023/05/10 06:24:29;;;;;;;16.13;15.63;;;15.20;99.90;;;;;;5072063;28;20523;-82
2023/05/10 06:30:55;;;;;;;16.60;16.10;;;15.20;1.00;;;;;;5062714;28;20466;-82
2023/05/10 06:33:38;;;;;;;16.30;15.80;;;15.20;57.00;;;;;;5060833;28;20468;-82
2023/05/10 06:36:39;;;;;;;16.10;15.60;;;15.20;1.00;;;;;;5080231;28;20455;-81
2023/05/10 06:39:25;;;;;;;16.50;16.00;;;15.20;1.00;;;;;;5081785;28;20552;-82
2023/05/10 06:42:15;;;;;;;16.23;15.73;;;15.10;99.90;;;;;;5064384;28;20460;-81
2023/05/10 06:45:09;;;;;;;15.80;15.40;;;15.20;1.00;;;;;;5068383;28;20578;-82
2023/05/10 06:48:12;;;;;;;16.40;15.70;;;15.20;99.90;;;;;;5072565;28;20455;-83
2023/05/10 06:53:57;;;;;;;16.60;15.90;;;15.20;1.00;;;;;;5077896;28;20481;-83
2023/05/10 06:57:02;;;;;;;16.37;15.90;;;15.30;99.90;;;;;;5074384;28;20916;-83
2023/05/10 07:00:25;;;;;;;16.30;15.80;;;15.30;99.90;;;;;;5074426;28;20468;-83
2023/05/10 07:03:23;;;;;;;16.73;16.13;;;15.40;99.90;;;;;;5079807;28;20538;-82
2023/05/10 07:06:30;;;;;;;16.53;15.93;;;15.40;1.00;;;;;;5076040;28;20478;-83
2023/05/10 07:09:44;;;;;;;16.13;15.63;;;15.40;99.90;;;;;;5062985;28;20562;-83
2023/05/10 07:12:32;;;;;;;16.20;15.67;;;15.50;1.00;;;;;;5058916;28;20477;-83
2023/05/10 07:15:28;;;;;;;16.80;16.23;;;15.50;1.00;;;;;;5059553;28;20550;-84
2023/05/10 07:21:47;;;;;;;16.17;15.67;;;15.60;1.00;;;;;;5080094;28;20449;-82
2023/05/10 07:24:39;;;;;;;16.60;16.00;;;15.60;99.90;;;;;;5082918;28;20996;-83
2023/05/10 07:28:00;;;;;;;13.83;13.53;;;15.50;99.90;;;;;;5084010;28;20474;-83
2023/05/10 07:31:01;;;;;;;14.10;13.60;;;15.50;99.90;;;;;;5066732;28;20461;-82
2023/05/10 07:34:26;;;;;;;13.60;13.30;;;15.50;99.90;;;;;;5009056;28;21353;-82
2023/05/10 07:37:22;;;;;;;14.40;14.00;;;15.50;99.90;;;;;;5012800;28;20570;-82
2023/05/10 07:40:25;;;;;;;14.10;13.70;;;15.60;99.90;;;;;;5018238;28;20465;-82
2023/05/10 07:46:16;;;;;;;13.63;13.23;;;15.60;1.00;;;;;;5016252;28;20542;-83
2023/05/10 07:49:35;;;;;;;14.00;13.70;;;15.60;99.90;;;;;;5006538;28;20619;-83
2023/05/10 07:52:39;;;;;;;14.00;13.50;;;15.60;99.90;;;;;;5006657;28;20909;-82
2023/05/10 07:56:06;;;;;;;13.93;13.60;;;15.60;99.90;;;;;;5012204;28;20567;-83
2023/05/10 08:02:14;;;;;;;14.07;13.67;;;15.80;1.00;;;;;;5002159;28;21062;-83
2023/05/10 08:08:15;;;;;;;15.10;14.60;;;15.80;63.20;;;;;;5062407;28;20499;-83
2023/05/10 08:14:02;;;;;;;14.40;13.80;;;16.00;62.50;;;;;;5064841;28;20492;-82
2023/05/10 08:20:00;;;;;;;15.47;14.83;;;15.90;1.00;;;;;;5078976;28;20554;-81
2023/05/10 08:22:50;;;;;;;14.00;13.70;;;16.00;1.00;;;;;;5075858;28;20478;-82
2023/05/10 08:28:54;;;;;;;14.73;14.13;;;16.00;99.90;;;;;;5079089;28;20474;-83
2023/05/10 08:35:49;;;;;;;;;;;;;;;;;;;;;
2023/05/10 08:39:08;;;;;;;14.57;14.17;;;16.00;1.00;;;;;;4951036;28;20478;-83
2023/05/10 08:42:09;;;;;;;13.80;13.50;;;16.00;1.00;;;;;;4962504;28;20464;-83
2023/05/10 08:45:30;;;;;;;14.40;14.10;;;16.00;1.00;;;;;;4960808;28;20498;-82
2023/05/10 08:48:53;;;;;;;;;;;;;;;;;;;;;
2023/05/10 08:51:54;;;;;;;14.33;14.03;;;16.10;99.90;;;;;;4956555;28;20518;-83
2023/05/10 08:55:03;;;;;;;14.03;13.63;;;16.20;99.90;;;;;;4955323;28;21007;-82
2023/05/10 08:58:08;;;;;;;14.30;13.77;;;16.30;99.90;;;;;;4959065;28;20457;-82
2023/05/10 09:00:54;;;;;;;14.00;13.70;;;16.30;99.90;;;;;;4959900;28;20472;-82
2023/05/10 09:03:59;;;;;;;14.00;13.70;;;16.30;99.90;;;;;;4959006;28;20993;-82
2023/05/10 09:10:55;;;;;;;14.37;13.97;;;16.20;99.90;;;;;;4956643;28;20476;-82
2023/05/10 09:14:21;;;;;;;13.90;13.60;;;16.20;99.90;;;;;;4957189;28;20844;-82
2023/05/10 09:20:48;;;;;;;14.07;13.73;;;16.30;99.90;;;;;;4962999;28;20448;-82
2023/05/10 09:23:59;;;;;;;13.80;13.50;;;16.30;92.10;;;;;;4956998;28;20481;-82
2023/05/10 09:27:07;;;;;;;14.23;13.93;;;16.40;98.90;;;;;;4960771;28;20469;-84
2023/05/10 09:33:52;;;;;;;14.20;13.87;;;16.40;99.90;;;;;;4963067;28;20485;-82
2023/05/10 09:40:26;;;;;;;14.10;13.57;;;16.50;64.30;;;;;;4934524;28;20467;-83
2023/05/10 09:43:52;;;;;;;14.80;14.40;;;16.60;8.70;;;;;;4966052;28;20475;-82
2023/05/10 09:47:26;;;;;;;14.17;13.67;;;16.70;1.00;;;;;;4964367;28;20485;-84
2023/05/10 09:53:52;;;;;;;14.10;13.70;;;16.90;1.00;;;;;;4963121;28;20540;-83
2023/05/10 10:00:44;;;;;;;14.70;14.40;;;17.00;1.00;;;;;;4964177;28;20454;-83
2023/05/10 10:03:54;;;;;;;14.30;14.00;;;17.10;1.00;;;;;;4961957;28;20557;-83
2023/05/10 10:13:28;;;;;;;14.30;14.00;;;17.40;1.00;;;;;;4961764;28;21033;-84
2023/05/10 10:19:58;;;;;;;13.43;13.13;;;17.60;1.00;;;;;;4958771;28;20841;-83
2023/05/10 10:22:46;;;;;;;13.63;13.33;;;17.70;1.00;;;;;;4956542;28;20566;-84
2023/05/10 10:25:16;;;;;;;13.20;12.90;;;17.90;1.00;;;;;;4962574;28;20473;-83
2023/05/10 10:27:56;;;;;;;13.17;12.97;;;17.90;1.00;;;;;;4962781;28;20489;-82
2023/05/10 10:30:31;;;;;;;13.50;13.20;;;18.00;99.90;;;;;;4962053;28;20521;-82
2023/05/10 10:33:25;;;;;;;13.67;13.37;;;18.00;99.90;;;;;;4960135;28;20529;-83
2023/05/10 10:47:00;;;;;;;12.90;12.70;;;17.80;99.90;;;;;;4916680;29;21009;-83
2023/05/10 10:49:32;;;;;;;13.30;12.70;;;17.40;99.90;;;;;;4915983;29;20461;-84
2023/05/10 10:52:21;;;;;;;15.33;15.03;;;17.20;99.90;;;;;;4918332;29;20467;-82
2023/05/10 10:54:53;;;;;;;15.90;15.50;;;16.80;99.90;;;;;;4920927;29;20472;-83
2023/05/10 11:01:31;;;;;;;16.37;15.97;;;16.50;99.90;;;;;;4917638;29;20491;-84
2023/05/10 11:04:31;;;;;;;16.40;15.90;;;16.40;99.90;;;;;;4922194;29;20474;-83
2023/05/10 11:17:47;;;;;;;15.50;15.10;;;16.30;99.90;;;;;;4963047;28;20469;-82
2023/05/10 11:21:18;;;;;;;16.30;15.70;;;16.30;99.90;;;;;;4966277;28;20540;-83
2023/05/10 11:43:32;;;;;;;15.70;15.30;;;16.70;99.90;;;;;;4963856;28;20509;-84
2023/05/10 11:49:55;;;;;;;15.80;15.40;;;17.00;99.90;;;;;;4945829;28;20932;-83
2023/05/10 11:52:24;;;;;;;15.80;15.40;;;17.00;99.90;;;;;;4963338;28;20975;-84
2023/05/10 11:54:53;;;;;;;16.20;15.80;;;17.10;99.90;;;;;;4959391;28;21049;-83
2023/05/10 11:57:26;;;;;;;17.53;16.57;;;17.10;99.90;;;;;;4960964;28;21204;-83
2023/05/10 11:59:58;;;;;;;16.27;15.87;;;17.20;99.90;;;;;;4957557;28;21013;-83
2023/05/10 12:02:26;;;;;;;16.20;15.80;;;17.40;99.90;;;;;;4954099;28;20477;-84
2023/05/10 12:04:56;;;;;;;15.97;15.57;;;17.30;99.90;;;;;;4960873;28;20458;-84
2023/05/10 12:08:11;;;;;;;16.33;15.83;;;17.30;99.90;;;;;;4959338;28;20458;-83
2023/05/10 12:14:36;;;;;;;16.77;16.27;;;17.40;99.90;;;;;;4945574;28;20453;-82
2023/05/10 12:17:33;;;;;;;16.33;15.93;;;17.30;99.90;;;;;;4960874;28;20991;-85
2023/05/10 12:20:15;;;;;;;15.63;15.33;;;17.30;99.90;;;;;;4957194;28;20645;-83
2023/05/10 12:27:07;;;;;;;15.77;15.37;;;17.20;99.90;;;;;;5053360;28;20593;-84
2023/05/10 12:30:05;;;;;;;15.70;15.20;;;17.10;99.90;;;;;;5054456;28;20481;-83
2023/05/10 12:33:11;;;;;;;15.70;15.20;;;17.10;99.90;;;;;;5058954;28;20473;-83
2023/05/10 12:36:24;;;;;;;15.50;15.10;;;17.10;99.90;;;;;;5051747;28;21016;-83
2023/05/10 12:42:11;;;;;;;15.60;15.10;;;17.00;99.90;;;;;;5054770;28;20843;-84
2023/05/10 12:45:38;;;;;;;15.50;15.00;;;17.00;99.90;;;;;;5042970;28;20469;-84
2023/05/10 12:52:10;;;;;;;15.93;15.37;;;17.00;99.90;;;;;;5057865;28;20454;-83
2023/05/10 12:55:06;;;;;;;15.33;15.00;;;17.00;99.90;;;;;;5054392;28;20604;-84
2023/05/10 12:57:49;;;;;;;15.43;14.83;;;17.10;99.90;;;;;;5031094;28;21150;-83
2023/05/10 13:00:20;;;;;;;15.70;15.00;;;17.00;99.90;;;;;;5057617;28;20536;-84
2023/05/10 13:02:52;;;;;;;15.33;14.80;;;17.10;99.90;;;;;;5060498;28;20486;-84
2023/05/10 13:08:54;;;;;;;14.93;14.53;;;17.20;99.90;;;;;;5060500;28;20863;-83
2023/05/10 13:15:07;;;;;;;15.10;14.60;;;17.10;99.90;;;;;;4957719;28;20669;-82
2023/05/10 13:25:17;;;;;;;14.83;14.33;;;17.30;99.90;;;;;;4963966;28;20459;-82
2023/05/10 13:27:59;;;;;;;14.60;13.87;;;17.30;99.90;;;;;;4987058;28;20465;-84
2023/05/10 13:30:28;;;;;;;14.30;13.90;;;17.20;99.90;;;;;;4985894;28;20610;-85
2023/05/10 13:33:00;;;;;;;14.50;14.20;;;17.10;99.90;;;;;;4984489;28;20480;-86
2023/05/10 13:42:24;;;;;;;14.40;14.00;;;17.30;99.90;;;;;;4982162;28;20461;-83
2023/05/10 13:45:26;;;;;;;14.43;14.13;;;17.30;99.90;;;;;;4983212;28;20446;-83
2023/05/10 13:48:20;;;;;;;14.10;13.80;;;17.20;99.90;;;;;;4965769;28;20944;-83
2023/05/10 13:58:21;;;;;;;14.40;13.97;;;17.30;99.90;;;;;;4981599;28;20550;-84
2023/05/10 14:01:17;;;;;;;14.17;13.60;;;17.30;99.90;;;;;;4986603;28;20465;-83
2023/05/10 14:04:55;;;;;;;14.47;13.90;;;17.40;99.90;;;;;;4984318;28;20474;-85
2023/05/10 14:07:51;;;;;;;14.37;13.90;;;17.40;99.90;;;;;;4982898;28;20538;-83
2023/05/10 14:14:28;;;;;;;13.57;13.27;;;17.30;99.90;;;;;;4976291;28;20517;-83
2023/05/10 14:17:33;;;;;;;13.90;13.60;;;17.30;99.90;;;;;;4980660;28;20568;-83
2023/05/10 14:23:17;;;;;;;13.60;13.30;;;17.30;99.90;;;;;;4979886;28;20544;-83
2023/05/10 14:26:02;;;;;;;13.23;12.93;;;17.40;99.90;;;;;;4981640;28;20457;-83
2023/05/10 14:29:50;;;;;;;14.20;13.60;;;17.20;99.90;;;;;;4941687;29;20842;-85
2023/05/10 14:32:58;;;;;;;13.70;13.20;;;17.30;99.90;;;;;;4875197;29;20632;-84
2023/05/10 14:35:46;;;;;;;14.30;13.90;;;17.40;99.90;;;;;;4920415;29;20467;-84
2023/05/10 14:38:16;;;;;;;13.90;13.50;;;17.50;99.90;;;;;;4942228;29;20851;-84
2023/05/10 14:40:51;;;;;;;13.37;12.90;;;17.30;99.90;;;;;;4927663;29;20525;-83
2023/05/10 14:43:22;;;;;;;13.50;13.10;;;17.30;99.90;;;;;;4942947;28;21337;-85
2023/05/10 14:49:46;;;;;;;14.23;13.90;;;17.50;99.90;;;;;;4956373;28;21458;-82
2023/05/10 14:52:52;;;;;;;14.50;13.80;;;17.50;99.90;;;;;;4983168;28;20630;-81
2023/05/10 14:56:03;;;;;;;14.37;13.90;;;17.50;99.90;;;;;;4979889;28;20834;-81
2023/05/10 14:59:11;;;;;;;13.37;12.77;;;17.50;99.90;;;;;;4969734;28;20511;-84
2023/05/10 15:05:21;;;;;;;13.67;13.37;;;17.50;99.90;;;;;;4882701;29;20462;-81
2023/05/10 15:08:10;;;;;;;14.10;13.63;;;17.60;99.90;;;;;;4857845;29;20475;-82
2023/05/10 15:11:20;;;;;;;13.43;13.13;;;17.50;99.90;;;;;;4887637;29;20498;-81
2023/05/10 15:19:54;;;;;;;14.40;14.10;;;17.50;99.90;;;;;;4884225;29;20530;-82
2023/05/10 15:22:23;;;;;;;14.37;13.80;;;17.60;99.90;;;;;;4930957;28;20453;-79
2023/05/10 15:24:52;;;;;;;14.20;13.70;;;17.60;99.90;;;;;;4979853;28;20828;-83
2023/05/10 15:27:20;;;;;;;13.97;13.57;;;17.50;99.90;;;;;;4965947;28;20457;-84
2023/05/10 15:29:48;;;;;;;14.90;14.40;;;17.50;99.90;;;;;;4980575;28;20481;-80
2023/05/10 15:32:17;;;;;;;13.80;13.40;;;17.60;99.90;;;;;;4981588;28;20514;-80
2023/05/10 15:34:45;;;;;;;15.63;15.03;;;17.60;99.90;;;;;;4980688;28;20460;-81
2023/05/10 15:37:13;;;;;;;14.30;13.90;;;17.60;99.90;;;;;;4981990;28;21050;-81
2023/05/10 15:39:43;;;;;;;14.07;13.77;;;17.70;99.90;;;;;;4975340;28;20466;-78
2023/05/10 15:42:11;;;;;;;14.03;13.73;;;17.60;99.90;;;;;;4982558;28;20446;-82
2023/05/10 15:44:39;;;;;;;14.40;13.90;;;17.70;99.90;;;;;;4981159;28;20469;-82
2023/05/10 15:47:07;;;;;;;13.80;13.40;;;17.60;99.90;;;;;;4971247;28;20466;-82
2023/05/10 15:49:36;;;;;;;13.60;13.30;;;17.50;99.90;;;;;;4978858;28;20464;-80
2023/05/10 15:52:04;;;;;;;14.17;13.40;;;17.60;99.90;;;;;;4980399;28;20461;-82
2023/05/10 15:54:32;;;;;;;13.73;13.33;;;17.60;99.90;;;;;;4979526;28;21037;-82
2023/05/10 15:57:02;;;;;;;14.00;13.60;;;17.60;99.90;;;;;;4977917;28;20493;-82
2023/05/10 15:59:30;;;;;;;14.13;13.73;;;17.70;99.90;;;;;;4980906;28;20450;-83
2023/05/10 16:01:58;;;;;;;13.47;13.17;;;17.60;99.90;;;;;;4979452;28;20547;-81
2023/05/10 16:04:27;;;;;;;13.40;13.10;;;17.50;99.90;;;;;;4980928;28;20914;-82
2023/05/10 16:06:55;;;;;;;13.13;12.80;;;17.50;99.90;;;;;;4983511;28;20466;-83
2023/05/10 16:09:23;;;;;;;13.10;12.90;;;17.40;99.90;;;;;;4981653;28;20443;-81
2023/05/10 16:11:51;;;;;;;13.90;13.60;;;17.40;99.90;;;;;;4980662;28;21066;-81
2023/05/10 16:14:23;;;;;;;13.20;13.00;;;17.40;99.90;;;;;;4980331;28;21029;-82
2023/05/10 16:16:51;;;;;;;12.20;11.90;;;17.40;99.90;;;;;;4982097;28;20460;-81
2023/05/10 16:19:20;;;;;;;12.80;12.40;;;17.30;99.90;;;;;;4983157;28;20464;-83
2023/05/10 16:21:48;;;;;;;13.00;12.70;;;17.30;99.90;;;;;;4978301;28;20493;-80
2023/05/10 16:24:17;;;;;;;12.73;12.30;;;17.30;99.90;;;;;;4963243;28;20929;-82
2023/05/10 16:26:45;;;;;;;13.17;12.37;;;17.20;99.90;;;;;;4983286;28;20465;-81
2023/05/10 16:29:14;;;;;;;12.50;12.30;;;17.20;99.90;;;;;;4979139;28;20472;-83
2023/05/10 16:31:43;;;;;;;12.30;12.10;;;17.20;99.90;;;;;;4980778;28;20670;-82
2023/05/10 16:34:15;;;;;;;12.80;12.50;;;17.20;99.90;;;;;;4980075;28;20482;-82
2023/05/10 16:36:51;;;;;;;12.70;12.40;;;17.20;99.90;;;;;;4963998;28;20513;-81
2023/05/10 16:39:26;;;;;;;12.67;12.40;;;17.10;99.90;;;;;;4978188;28;20479;-82
2023/05/10 16:41:56;;;;;;;13.10;12.70;;;17.10;99.90;;;;;;4984321;28;21125;-82
2023/05/10 16:44:25;;;;;;;12.83;12.60;;;17.10;99.90;;;;;;4980682;28;20514;-83
2023/05/10 16:46:57;;;;;;;12.77;12.47;;;17.10;99.90;;;;;;4960922;28;21702;-82
2023/05/10 16:49:29;;;;;;;13.50;13.10;;;17.10;99.90;;;;;;4981954;28;20469;-82
2023/05/10 16:52:01;;;;;;;13.60;13.20;;;17.00;99.90;;;;;;4985711;28;20470;-81
2023/05/10 16:54:30;;;;;;;13.60;13.10;;;17.00;99.90;;;;;;4983944;28;20481;-83
2023/05/10 16:57:00;;;;;;;13.60;13.20;;;17.00;99.90;;;;;;4983886;28;20489;-83
2023/05/10 16:59:30;;;;;;;13.60;13.30;;;16.90;99.90;;;;;;4982027;28;20483;-83
2023/05/10 17:02:03;;;;;;;14.20;13.90;;;16.80;99.90;;;;;;4984874;28;20451;-83
2023/05/10 17:04:35;;;;;;;14.40;14.00;;;16.80;99.90;;;;;;4983722;28;20473;-82
2023/05/10 17:07:07;;;;;;;15.97;14.87;;;16.70;99.90;;;;;;4983374;28;20465;-82
2023/05/10 17:09:37;;;;;;;14.57;14.17;;;16.60;99.90;;;;;;4981315;28;20458;-81
2023/05/10 17:12:10;;;;;;;14.90;14.37;;;16.60;99.90;;;;;;4977631;28;20513;-82
2023/05/10 17:14:40;;;;;;;14.23;13.83;;;16.60;99.90;;;;;;4980878;28;21096;-82
2023/05/10 17:23:54;;;;;;;13.53;13.23;;;16.50;99.90;;;;;;4933839;28;20561;-83
2023/05/10 17:29:34;;;;;;;13.47;13.07;;;16.40;99.90;;;;;;4965978;28;20478;-82
2023/05/10 17:32:02;;;;;;;14.10;13.80;;;16.40;99.90;;;;;;4978967;28;21007;-81
2023/05/10 17:34:33;;;;;;;13.60;13.30;;;16.30;99.90;;;;;;4978835;28;20473;-82
2023/05/10 17:37:03;;;;;;;14.30;13.90;;;16.30;99.90;;;;;;4975053;28;20465;-82
2023/05/10 17:39:34;;;;;;;15.13;14.63;;;16.40;99.90;;;;;;4982189;28;20859;-82
2023/05/10 17:42:07;;;;;;;13.50;13.20;;;16.30;99.90;;;;;;4984820;28;20555;-81
2023/05/10 17:44:37;;;;;;;13.90;13.50;;;16.30;99.90;;;;;;4985093;28;20465;-79
2023/05/10 17:47:06;;;;;;;14.50;14.10;;;16.30;99.90;;;;;;4988476;28;20492;-80
2023/05/10 17:49:39;;;;;;;14.80;14.40;;;16.30;99.90;;;;;;4987189;28;20457;-80
2023/05/10 17:52:08;;;;;;;14.83;14.50;;;16.20;99.90;;;;;;4986694;28;20573;-80
2023/05/10 17:54:39;;;;;;;16.03;15.10;;;16.10;99.90;;;;;;4982588;28;20560;-82